This is the latest recevied weather packets stored in our database for station/object NQ9F. If no packets are shown the sender has not sent any weather packets the latest 10 day(s).
| Time | Temp. | Humidity | Pressure | Rain* | Wind** | Luminosity | Snow |
|---|---|---|---|---|---|---|---|
| 1777589170 | 16.11° C | 82% | 1013.8 hPa | 0 mm | - | 63 W/m² | - |
| 1777588866 | 16.11° C | 83% | 1013.6 hPa | 0 mm | - | 59 W/m² | - |
| 1777588563 | 16.11° C | 83% | 1013.6 hPa | 0 mm | - | 65 W/m² | - |
| 1777588258 | 16.11° C | 83% | 1013.1 hPa | 0 mm | - | 102 W/m² | - |
| 1777587953 | 16.11° C | 83% | 1013.3 hPa | 0 mm | - | 110 W/m² | - |
| 1777587649 | 16.11° C | 82% | 1013.4 hPa | 0 mm | - | 125 W/m² | - |
| 1777587344 | 16.11° C | 84% | 1013.7 hPa | 0 mm | - | 120 W/m² | - |
| 1777587039 | 16.11° C | 83% | 1013.5 hPa | 0 mm | - | 112 W/m² | - |
| 1777586736 | 16.11° C | 84% | 1013.6 hPa | 0 mm | - | 128 W/m² | - |
| 1777586432 | 16.11° C | 84% | 1013.8 hPa | 0 mm | - | 102 W/m² | - |
| 1777586132 | 16.11° C | 84% | 1014 hPa | 0 mm | - | 101 W/m² | - |
| 1777585830 | 16.11° C | 84% | 1014 hPa | 0 mm | - | 113 W/m² | - |
| 1777585529 | 16.11° C | 84% | 1013.7 hPa | 0 mm | - | 134 W/m² | - |
| 1777585225 | 16.11° C | 83% | 1013.4 hPa | 0 mm | - | 164 W/m² | - |
| 1777584921 | 16.11° C | 84% | 1013.5 hPa | 0 mm | - | 143 W/m² | - |
| 1777584618 | 16.11° C | 84% | 1013.9 hPa | 0 mm | - | 89 W/m² | - |
| 1777584315 | 16.11° C | 84% | 1013.8 hPa | 0 mm | - | 81 W/m² | - |
| 1777584011 | 16.11° C | 84% | 1013.9 hPa | 0 mm | - | 81 W/m² | - |
| 1777583705 | 16.11° C | 84% | 1013.9 hPa | 0 mm | - | 62 W/m² | - |
| 1777583405 | 16.11° C | 83% | 1014.2 hPa | 0 mm | - | 67 W/m² | - |
| 1777583104 | 16.11° C | 84% | 1014.1 hPa | 0 mm | - | 87 W/m² | - |
| 1777582800 | 16.11° C | 83% | 1014.5 hPa | 0 mm | - | 74 W/m² | - |
| 1777582496 | 16.11° C | 83% | 1014.4 hPa | 0 mm | - | 86 W/m² | - |
| 1777582191 | 16.67° C | 83% | 1014.2 hPa | 0 mm | - | 136 W/m² | - |
| 1777581889 | 16.67° C | 84% | 1014.1 hPa | 0 mm | - | 263 W/m² | - |
* Rain latest hour (hover to see other rain measurements)
** Current wind speed in m/s (hover to see current wind gust speed)